sensor_id;sensor_type;location;lat;lon;timestamp;pressure;altitude;pressure_sealevel;temperature;humidity
19596;BME280;9945;46.010;8.946;2023-06-10T00:01:38;96915.69;;;23.17;82.93
19596;BME280;9945;46.010;8.946;2023-06-10T00:04:04;96919.16;;;23.17;81.89
19596;BME280;9945;46.010;8.946;2023-06-10T00:06:31;96914.88;;;23.16;81.57
19596;BME280;9945;46.010;8.946;2023-06-10T00:09:02;96920.56;;;23.20;80.37
19596;BME280;9945;46.010;8.946;2023-06-10T00:11:30;96920.44;;;23.15;80.94
19596;BME280;9945;46.010;8.946;2023-06-10T00:13:57;96922.41;;;23.19;79.92
19596;BME280;9945;46.010;8.946;2023-06-10T00:16:24;96916.84;;;23.09;81.10
19596;BME280;9945;46.010;8.946;2023-06-10T00:18:52;96916.16;;;23.14;80.43
19596;BME280;9945;46.010;8.946;2023-06-10T00:21:21;96917.22;;;23.01;81.34
19596;BME280;9945;46.010;8.946;2023-06-10T00:23:50;96919.63;;;23.14;79.66
19596;BME280;9945;46.010;8.946;2023-06-10T00:26:17;96921.38;;;23.20;80.91
19596;BME280;9945;46.010;8.946;2023-06-10T00:28:44;96914.63;;;23.18;82.38
19596;BME280;9945;46.010;8.946;2023-06-10T00:31:11;96908.38;;;23.12;85.74
19596;BME280;9945;46.010;8.946;2023-06-10T00:33:38;96919.63;;;23.26;81.37
19596;BME280;9945;46.010;8.946;2023-06-10T00:36:06;96908.34;;;23.24;78.91
19596;BME280;9945;46.010;8.946;2023-06-10T00:38:33;96908.84;;;23.21;78.23
19596;BME280;9945;46.010;8.946;2023-06-10T00:41:00;96905.72;;;23.12;78.98
19596;BME280;9945;46.010;8.946;2023-06-10T00:43:27;96907.22;;;23.08;79.89
19596;BME280;9945;46.010;8.946;2023-06-10T00:45:54;96903.28;;;22.99;78.61
19596;BME280;9945;46.010;8.946;2023-06-10T00:48:24;96912.22;;;22.93;79.30
19596;BME280;9945;46.010;8.946;2023-06-10T00:50:51;96908.16;;;23.02;78.49
19596;BME280;9945;46.010;8.946;2023-06-10T00:53:19;96902.00;;;22.90;79.54
19596;BME280;9945;46.010;8.946;2023-06-10T00:55:46;96908.66;;;22.87;79.24
19596;BME280;9945;46.010;8.946;2023-06-10T00:58:14;96908.03;;;22.97;78.08
19596;BME280;9945;46.010;8.946;2023-06-10T01:00:42;96900.50;;;22.82;78.37
19596;BME280;9945;46.010;8.946;2023-06-10T01:03:10;96896.44;;;22.91;77.66
19596;BME280;9945;46.010;8.946;2023-06-10T01:05:38;96898.88;;;23.05;76.62
19596;BME280;9945;46.010;8.946;2023-06-10T01:08:09;96888.41;;;23.03;76.94
19596;BME280;9945;46.010;8.946;2023-06-10T01:10:47;96898.28;;;22.91;78.57
19596;BME280;9945;46.010;8.946;2023-06-10T01:13:17;96899.81;;;22.87;78.50
19596;BME280;9945;46.010;8.946;2023-06-10T01:15:49;96895.41;;;22.92;77.83
19596;BME280;9945;46.010;8.946;2023-06-10T01:18:16;96897.16;;;22.87;77.36
19596;BME280;9945;46.010;8.946;2023-06-10T01:20:44;96895.16;;;22.82;78.33
19596;BME280;9945;46.010;8.946;2023-06-10T01:23:15;96895.63;;;23.02;76.89
19596;BME280;9945;46.010;8.946;2023-06-10T01:25:46;96892.94;;;23.02;76.71
19596;BME280;9945;46.010;8.946;2023-06-10T01:28:19;96896.31;;;22.98;76.84
19596;BME280;9945;46.010;8.946;2023-06-10T01:30:53;96894.81;;;22.90;76.87
19596;BME280;9945;46.010;8.946;2023-06-10T01:33:25;96892.84;;;22.86;78.15
19596;BME280;9945;46.010;8.946;2023-06-10T01:35:53;96896.44;;;22.80;78.25
19596;BME280;9945;46.010;8.946;2023-06-10T01:38:25;96897.97;;;22.87;78.23
19596;BME280;9945;46.010;8.946;2023-06-10T01:40:55;96910.16;;;22.95;77.84
19596;BME280;9945;46.010;8.946;2023-06-10T01:43:22;96903.16;;;22.82;79.85
19596;BME280;9945;46.010;8.946;2023-06-10T01:45:49;96900.50;;;22.71;80.63
19596;BME280;9945;46.010;8.946;2023-06-10T01:48:16;96899.41;;;22.72;82.36
19596;BME280;9945;46.010;8.946;2023-06-10T01:50:43;96910.28;;;22.77;83.77
19596;BME280;9945;46.010;8.946;2023-06-10T01:53:10;96903.53;;;22.74;84.63
19596;BME280;9945;46.010;8.946;2023-06-10T01:55:38;96901.53;;;22.70;83.67
19596;BME280;9945;46.010;8.946;2023-06-10T01:58:08;96900.94;;;22.56;85.83
19596;BME280;9945;46.010;8.946;2023-06-10T02:00:35;96902.91;;;22.60;85.53
19596;BME280;9945;46.010;8.946;2023-06-10T02:03:01;96899.66;;;22.58;84.69
19596;BME280;9945;46.010;8.946;2023-06-10T02:05:28;96906.44;;;22.08;88.62
19596;BME280;9945;46.010;8.946;2023-06-10T02:07:55;96903.91;;;22.24;87.94
19596;BME280;9945;46.010;8.946;2023-06-10T02:10:22;96902.03;;;22.02;93.55
19596;BME280;9945;46.010;8.946;2023-06-10T02:12:50;96905.16;;;22.10;94.33
19596;BME280;9945;46.010;8.946;2023-06-10T02:15:17;96894.25;;;22.12;94.42
19596;BME280;9945;46.010;8.946;2023-06-10T02:17:44;96898.53;;;22.13;94.63
19596;BME280;9945;46.010;8.946;2023-06-10T02:20:11;96899.75;;;22.29;93.75
19596;BME280;9945;46.010;8.946;2023-06-10T02:22:40;96895.34;;;22.46;91.47
19596;BME280;9945;46.010;8.946;2023-06-10T02:25:07;96898.84;;;22.46;91.67
19596;BME280;9945;46.010;8.946;2023-06-10T02:27:34;96905.81;;;22.59;90.67
19596;BME280;9945;46.010;8.946;2023-06-10T02:30:03;96898.25;;;22.56;90.94
19596;BME280;9945;46.010;8.946;2023-06-10T02:32:30;96897.94;;;22.52;90.80
19596;BME280;9945;46.010;8.946;2023-06-10T02:34:57;96903.03;;;22.54;90.22
19596;BME280;9945;46.010;8.946;2023-06-10T02:37:25;96904.06;;;22.64;89.38
19596;BME280;9945;46.010;8.946;2023-06-10T02:39:52;96906.28;;;22.68;86.95
19596;BME280;9945;46.010;8.946;2023-06-10T02:42:19;96896.41;;;22.68;84.48
19596;BME280;9945;46.010;8.946;2023-06-10T02:44:45;96906.50;;;22.66;84.01
19596;BME280;9945;46.010;8.946;2023-06-10T02:47:14;96888.91;;;22.77;82.22
19596;BME280;9945;46.010;8.946;2023-06-10T02:49:41;96888.63;;;22.67;81.81
19596;BME280;9945;46.010;8.946;2023-06-10T02:52:07;96889.34;;;22.50;81.71
19596;BME280;9945;46.010;8.946;2023-06-10T02:54:36;96882.81;;;22.46;82.65
19596;BME280;9945;46.010;8.946;2023-06-10T02:57:04;96887.00;;;22.42;83.47
19596;BME280;9945;46.010;8.946;2023-06-10T02:59:31;96878.66;;;22.50;83.12
19596;BME280;9945;46.010;8.946;2023-06-10T03:01:58;96871.25;;;22.52;82.43
19596;BME280;9945;46.010;8.946;2023-06-10T03:04:28;96883.06;;;22.45;82.98
19596;BME280;9945;46.010;8.946;2023-06-10T03:06:56;96875.88;;;22.45;83.52
19596;BME280;9945;46.010;8.946;2023-06-10T03:09:23;96871.00;;;22.42;83.23
19596;BME280;9945;46.010;8.946;2023-06-10T03:11:49;96873.06;;;22.40;83.75
19596;BME280;9945;46.010;8.946;2023-06-10T03:14:16;96865.91;;;22.52;83.22
19596;BME280;9945;46.010;8.946;2023-06-10T03:16:43;96853.47;;;22.58;83.00
19596;BME280;9945;46.010;8.946;2023-06-10T03:19:11;96855.00;;;22.54;84.25
19596;BME280;9945;46.010;8.946;2023-06-10T03:21:39;96858.34;;;22.61;84.49
19596;BME280;9945;46.010;8.946;2023-06-10T03:24:07;96855.56;;;22.56;85.93
19596;BME280;9945;46.010;8.946;2023-06-10T03:26:34;96854.97;;;22.31;89.06
19596;BME280;9945;46.010;8.946;2023-06-10T03:29:00;96861.72;;;22.33;89.70
19596;BME280;9945;46.010;8.946;2023-06-10T03:31:27;96857.97;;;21.81;94.56
19596;BME280;9945;46.010;8.946;2023-06-10T03:33:55;96861.19;;;22.01;93.01
19596;BME280;9945;46.010;8.946;2023-06-10T03:36:21;96858.25;;;21.91;93.39
19596;BME280;9945;46.010;8.946;2023-06-10T03:38:50;96860.53;;;21.87;93.79
19596;BME280;9945;46.010;8.946;2023-06-10T03:41:17;96862.50;;;22.10;91.22
19596;BME280;9945;46.010;8.946;2023-06-10T03:43:44;96864.00;;;22.18;89.70
19596;BME280;9945;46.010;8.946;2023-06-10T03:46:11;96861.13;;;22.31;87.08
19596;BME280;9945;46.010;8.946;2023-06-10T03:48:38;96857.88;;;22.41;86.63
19596;BME280;9945;46.010;8.946;2023-06-10T03:51:05;96862.06;;;22.37;87.49
19596;BME280;9945;46.010;8.946;2023-06-10T03:53:32;96861.34;;;22.30;87.55
19596;BME280;9945;46.010;8.946;2023-06-10T03:56:00;96867.22;;;21.78;90.49
19596;BME280;9945;46.010;8.946;2023-06-10T03:58:26;96873.63;;;21.47;93.35
19596;BME280;9945;46.010;8.946;2023-06-10T04:00:53;96874.50;;;21.71;91.85
19596;BME280;9945;46.010;8.946;2023-06-10T04:03:20;96876.72;;;21.44;93.95
19596;BME280;9945;46.010;8.946;2023-06-10T04:05:48;96875.03;;;21.50;95.02
19596;BME280;9945;46.010;8.946;2023-06-10T04:08:15;96875.69;;;21.27;97.57
19596;BME280;9945;46.010;8.946;2023-06-10T04:10:42;96869.66;;;21.20;99.48
19596;BME280;9945;46.010;8.946;2023-06-10T04:13:10;96868.78;;;21.26;100.00
19596;BME280;9945;46.010;8.946;2023-06-10T04:15:37;96871.50;;;21.20;100.00
19596;BME280;9945;46.010;8.946;2023-06-10T04:18:04;96863.34;;;21.14;100.00
19596;BME280;9945;46.010;8.946;2023-06-10T04:20:31;96877.19;;;21.05;100.00
19596;BME280;9945;46.010;8.946;2023-06-10T04:22:58;96868.03;;;21.01;100.00
19596;BME280;9945;46.010;8.946;2023-06-10T04:25:26;96869.09;;;20.93;100.00
19596;BME280;9945;46.010;8.946;2023-06-10T04:27:54;96869.56;;;20.90;100.00
19596;BME280;9945;46.010;8.946;2023-06-10T04:30:22;96866.00;;;21.14;100.00
19596;BME280;9945;46.010;8.946;2023-06-10T04:32:49;96872.78;;;21.17;100.00
19596;BME280;9945;46.010;8.946;2023-06-10T04:35:16;96870.53;;;21.32;100.00
19596;BME280;9945;46.010;8.946;2023-06-10T04:37:43;96870.81;;;21.42;100.00
19596;BME280;9945;46.010;8.946;2023-06-10T04:40:10;96861.09;;;21.48;100.00
19596;BME280;9945;46.010;8.946;2023-06-10T04:42:37;96867.44;;;21.65;100.00
19596;BME280;9945;46.010;8.946;2023-06-10T04:45:05;96878.09;;;21.65;100.00
19596;BME280;9945;46.010;8.946;2023-06-10T04:47:33;96870.00;;;21.42;100.00
19596;BME280;9945;46.010;8.946;2023-06-10T04:50:01;96867.06;;;21.62;100.00
19596;BME280;9945;46.010;8.946;2023-06-10T04:52:28;96868.63;;;21.81;100.00
19596;BME280;9945;46.010;8.946;2023-06-10T04:54:55;96871.03;;;21.71;100.00
19596;BME280;9945;46.010;8.946;2023-06-10T04:57:23;96867.72;;;21.87;99.58
19596;BME280;9945;46.010;8.946;2023-06-10T04:59:51;96876.28;;;21.77;99.67
19596;BME280;9945;46.010;8.946;2023-06-10T05:02:18;96865.66;;;21.89;99.40
19596;BME280;9945;46.010;8.946;2023-06-10T05:04:46;96869.31;;;22.06;97.66
19596;BME280;9945;46.010;8.946;2023-06-10T05:07:13;96868.31;;;22.19;96.69
19596;BME280;9945;46.010;8.946;2023-06-10T05:09:40;96867.16;;;22.26;96.84
19596;BME280;9945;46.010;8.946;2023-06-10T05:12:08;96854.28;;;22.35;95.53
19596;BME280;9945;46.010;8.946;2023-06-10T05:14:35;96858.56;;;22.48;92.11
19596;BME280;9945;46.010;8.946;2023-06-10T05:17:02;96863.81;;;22.43;91.27
19596;BME280;9945;46.010;8.946;2023-06-10T05:19:31;96859.63;;;22.35;91.92
19596;BME280;9945;46.010;8.946;2023-06-10T05:21:59;96865.22;;;21.92;95.26
19596;BME280;9945;46.010;8.946;2023-06-10T05:24:26;96863.00;;;21.59;98.06
19596;BME280;9945;46.010;8.946;2023-06-10T05:26:53;96861.91;;;21.78;97.19
19596;BME280;9945;46.010;8.946;2023-06-10T05:29:19;96860.69;;;21.93;95.74
19596;BME280;9945;46.010;8.946;2023-06-10T05:31:46;96858.31;;;22.03;96.01
19596;BME280;9945;46.010;8.946;2023-06-10T05:34:13;96863.75;;;22.08;95.13
19596;BME280;9945;46.010;8.946;2023-06-10T05:36:40;96868.88;;;22.21;94.21
19596;BME280;9945;46.010;8.946;2023-06-10T05:39:09;96871.53;;;22.21;95.46
19596;BME280;9945;46.010;8.946;2023-06-10T05:41:36;96874.91;;;22.16;95.31
19596;BME280;9945;46.010;8.946;2023-06-10T05:44:03;96873.31;;;22.27;95.07
19596;BME280;9945;46.010;8.946;2023-06-10T05:46:29;96866.59;;;22.36;93.50
19596;BME280;9945;46.010;8.946;2023-06-10T05:48:56;96873.31;;;22.27;93.84
19596;BME280;9945;46.010;8.946;2023-06-10T05:51:23;96869.94;;;22.20;94.61
19596;BME280;9945;46.010;8.946;2023-06-10T05:53:50;96875.84;;;22.22;94.68
19596;BME280;9945;46.010;8.946;2023-06-10T05:56:19;96875.03;;;22.21;94.16
19596;BME280;9945;46.010;8.946;2023-06-10T05:58:46;96880.03;;;22.18;93.71
19596;BME280;9945;46.010;8.946;2023-06-10T06:01:13;96875.06;;;22.45;92.90
19596;BME280;9945;46.010;8.946;2023-06-10T06:03:40;96867.53;;;22.53;91.91
19596;BME280;9945;46.010;8.946;2023-06-10T06:06:09;96877.72;;;22.56;91.45
19596;BME280;9945;46.010;8.946;2023-06-10T06:08:36;96873.88;;;22.64;91.56
19596;BME280;9945;46.010;8.946;2023-06-10T06:11:03;96876.56;;;22.64;92.67
19596;BME280;9945;46.010;8.946;2023-06-10T06:13:31;96873.44;;;22.67;93.27
19596;BME280;9945;46.010;8.946;2023-06-10T06:16:01;96875.66;;;22.70;93.55
19596;BME280;9945;46.010;8.946;2023-06-10T06:18:28;96879.50;;;22.62;96.10
19596;BME280;9945;46.010;8.946;2023-06-10T06:20:55;96877.94;;;22.55;97.05
19596;BME280;9945;46.010;8.946;2023-06-10T06:23:22;96878.91;;;22.60;96.71
19596;BME280;9945;46.010;8.946;2023-06-10T06:25:48;96884.94;;;22.68;96.74
19596;BME280;9945;46.010;8.946;2023-06-10T06:28:15;96887.16;;;22.71;97.26
19596;BME280;9945;46.010;8.946;2023-06-10T06:30:45;96893.66;;;22.75;96.80
19596;BME280;9945;46.010;8.946;2023-06-10T06:33:11;96891.53;;;22.65;97.52
19596;BME280;9945;46.010;8.946;2023-06-10T06:35:38;96889.56;;;22.72;97.56
19596;BME280;9945;46.010;8.946;2023-06-10T06:38:05;96885.75;;;22.80;96.63
19596;BME280;9945;46.010;8.946;2023-06-10T06:40:32;96896.22;;;22.81;97.09
19596;BME280;9945;46.010;8.946;2023-06-10T06:42:59;96899.00;;;22.86;96.79
19596;BME280;9945;46.010;8.946;2023-06-10T06:45:26;96887.75;;;22.96;94.42
19596;BME280;9945;46.010;8.946;2023-06-10T06:47:54;96894.22;;;23.00;92.74
19596;BME280;9945;46.010;8.946;2023-06-10T06:50:21;96896.56;;;22.96;92.93
19596;BME280;9945;46.010;8.946;2023-06-10T06:52:48;96889.81;;;22.94;92.38
19596;BME280;9945;46.010;8.946;2023-06-10T06:55:15;96899.69;;;22.93;93.71
19596;BME280;9945;46.010;8.946;2023-06-10T06:57:42;96892.25;;;22.84;95.83
19596;BME280;9945;46.010;8.946;2023-06-10T07:00:10;96890.16;;;22.97;95.53
19596;BME280;9945;46.010;8.946;2023-06-10T07:02:37;96895.97;;;22.94;94.76
19596;BME280;9945;46.010;8.946;2023-06-10T07:05:06;96890.72;;;22.99;94.93
19596;BME280;9945;46.010;8.946;2023-06-10T07:07:32;96895.63;;;23.02;94.39
19596;BME280;9945;46.010;8.946;2023-06-10T07:09:59;96897.25;;;23.04;95.52
19596;BME280;9945;46.010;8.946;2023-06-10T07:12:26;96894.81;;;22.90;96.29
19596;BME280;9945;46.010;8.946;2023-06-10T07:14:53;96900.28;;;22.95;96.62
19596;BME280;9945;46.010;8.946;2023-06-10T07:17:20;96895.25;;;22.99;95.02
19596;BME280;9945;46.010;8.946;2023-06-10T07:19:47;96897.34;;;22.97;94.69
19596;BME280;9945;46.010;8.946;2023-06-10T07:22:15;96896.22;;;22.93;96.87
19596;BME280;9945;46.010;8.946;2023-06-10T07:24:42;96897.47;;;22.90;96.59
19596;BME280;9945;46.010;8.946;2023-06-10T07:27:08;96894.00;;;23.01;94.04
19596;BME280;9945;46.010;8.946;2023-06-10T07:29:35;96899.09;;;22.80;94.78
19596;BME280;9945;46.010;8.946;2023-06-10T07:32:03;96903.41;;;22.92;94.39
19596;BME280;9945;46.010;8.946;2023-06-10T07:34:30;96897.03;;;23.05;93.76
19596;BME280;9945;46.010;8.946;2023-06-10T07:36:57;96893.53;;;22.93;92.64
19596;BME280;9945;46.010;8.946;2023-06-10T07:39:25;96892.81;;;22.97;92.88
19596;BME280;9945;46.010;8.946;2023-06-10T07:41:52;96893.50;;;23.16;91.28
19596;BME280;9945;46.010;8.946;2023-06-10T07:44:21;96892.44;;;23.29;88.78
19596;BME280;9945;46.010;8.946;2023-06-10T07:46:47;96889.28;;;23.32;87.48
19596;BME280;9945;46.010;8.946;2023-06-10T07:49:14;96888.22;;;23.33;87.78
19596;BME280;9945;46.010;8.946;2023-06-10T07:51:41;96892.66;;;23.27;87.55
19596;BME280;9945;46.010;8.946;2023-06-10T07:54:08;96893.78;;;23.43;87.32
19596;BME280;9945;46.010;8.946;2023-06-10T07:56:37;96882.03;;;23.56;85.64
19596;BME280;9945;46.010;8.946;2023-06-10T07:59:03;96885.06;;;23.48;85.53
19596;BME280;9945;46.010;8.946;2023-06-10T08:01:30;96880.69;;;23.30;87.56
19596;BME280;9945;46.010;8.946;2023-06-10T08:03:58;96886.13;;;23.47;86.93
19596;BME280;9945;46.010;8.946;2023-06-10T08:06:25;96884.38;;;23.40;89.09
19596;BME280;9945;46.010;8.946;2023-06-10T08:08:52;96878.22;;;23.40;89.12
19596;BME280;9945;46.010;8.946;2023-06-10T08:11:18;96882.84;;;23.05;90.24
19596;BME280;9945;46.010;8.946;2023-06-10T08:13:47;96880.44;;;23.31;88.36
19596;BME280;9945;46.010;8.946;2023-06-10T08:16:14;96882.41;;;23.48;86.69
19596;BME280;9945;46.010;8.946;2023-06-10T08:18:41;96883.19;;;23.60;85.55
19596;BME280;9945;46.010;8.946;2023-06-10T08:21:07;96878.66;;;23.60;85.17
19596;BME280;9945;46.010;8.946;2023-06-10T08:23:34;96881.66;;;23.64;82.51
19596;BME280;9945;46.010;8.946;2023-06-10T08:26:01;96882.13;;;23.61;79.80
19596;BME280;9945;46.010;8.946;2023-06-10T08:28:28;96882.72;;;23.63;80.27
19596;BME280;9945;46.010;8.946;2023-06-10T08:30:56;96885.84;;;23.48;81.77
19596;BME280;9945;46.010;8.946;2023-06-10T08:33:23;96881.22;;;23.55;81.45
19596;BME280;9945;46.010;8.946;2023-06-10T08:35:50;96883.41;;;23.58;82.15
19596;BME280;9945;46.010;8.946;2023-06-10T08:38:17;96884.13;;;23.54;83.35
19596;BME280;9945;46.010;8.946;2023-06-10T08:40:43;96887.28;;;23.79;82.25
19596;BME280;9945;46.010;8.946;2023-06-10T08:43:17;96887.41;;;23.56;81.45
19596;BME280;9945;46.010;8.946;2023-06-10T08:45:46;96885.59;;;23.73;78.98
19596;BME280;9945;46.010;8.946;2023-06-10T08:48:17;96890.28;;;23.83;79.56
19596;BME280;9945;46.010;8.946;2023-06-10T08:50:46;96892.13;;;23.82;80.90
19596;BME280;9945;46.010;8.946;2023-06-10T08:53:18;96886.91;;;23.87;80.87
19596;BME280;9945;46.010;8.946;2023-06-10T08:55:51;96886.44;;;23.90;79.51
19596;BME280;9945;46.010;8.946;2023-06-10T08:58:18;96888.81;;;23.75;82.09
19596;BME280;9945;46.010;8.946;2023-06-10T09:00:46;96881.59;;;23.35;84.62
19596;BME280;9945;46.010;8.946;2023-06-10T09:03:13;96891.19;;;23.60;84.87
19596;BME280;9945;46.010;8.946;2023-06-10T09:05:42;96879.97;;;23.74;82.40
19596;BME280;9945;46.010;8.946;2023-06-10T09:08:09;96884.00;;;23.60;83.37
19596;BME280;9945;46.010;8.946;2023-06-10T09:10:36;96891.78;;;23.62;83.09
19596;BME280;9945;46.010;8.946;2023-06-10T09:13:03;96893.22;;;23.81;82.81
19596;BME280;9945;46.010;8.946;2023-06-10T09:15:30;96891.56;;;23.63;88.74
19596;BME280;9945;46.010;8.946;2023-06-10T09:17:59;96891.09;;;23.43;91.25
19596;BME280;9945;46.010;8.946;2023-06-10T09:20:26;96888.34;;;23.78;86.11
19596;BME280;9945;46.010;8.946;2023-06-10T09:22:54;96884.59;;;23.51;86.93
19596;BME280;9945;46.010;8.946;2023-06-10T09:25:34;96878.03;;;23.30;90.57
19596;BME280;9945;46.010;8.946;2023-06-10T09:28:02;96875.53;;;23.00;91.45
19596;BME280;9945;46.010;8.946;2023-06-10T09:30:30;96878.63;;;23.20;89.80
19596;BME280;9945;46.010;8.946;2023-06-10T09:32:59;96876.81;;;23.49;88.97
19596;BME280;9945;46.010;8.946;2023-06-10T09:35:28;96885.31;;;23.74;88.65
19596;BME280;9945;46.010;8.946;2023-06-10T09:37:58;96887.75;;;23.76;88.56
19596;BME280;9945;46.010;8.946;2023-06-10T09:40:25;96884.03;;;23.49;89.35
19596;BME280;9945;46.010;8.946;2023-06-10T09:42:54;96887.00;;;23.12;91.42
19596;BME280;9945;46.010;8.946;2023-06-10T09:45:22;96879.41;;;23.32;91.69
19596;BME280;9945;46.010;8.946;2023-06-10T09:47:51;96879.81;;;23.64;90.40
19596;BME280;9945;46.010;8.946;2023-06-10T09:50:19;96880.34;;;23.66;90.42
19596;BME280;9945;46.010;8.946;2023-06-10T09:52:46;96878.16;;;23.92;89.47
19596;BME280;9945;46.010;8.946;2023-06-10T09:55:15;96873.09;;;23.50;90.25
19596;BME280;9945;46.010;8.946;2023-06-10T09:57:42;96873.34;;;23.49;92.85
19596;BME280;9945;46.010;8.946;2023-06-10T10:00:14;96880.78;;;23.75;90.69
19596;BME280;9945;46.010;8.946;2023-06-10T10:02:49;96881.78;;;23.57;90.90
19596;BME280;9945;46.010;8.946;2023-06-10T10:05:17;96878.25;;;23.68;90.62
19596;BME280;9945;46.010;8.946;2023-06-10T10:07:45;96878.09;;;23.75;91.60
19596;BME280;9945;46.010;8.946;2023-06-10T10:10:13;96878.56;;;24.00;89.79
19596;BME280;9945;46.010;8.946;2023-06-10T10:12:42;96876.50;;;24.36;86.07
19596;BME280;9945;46.010;8.946;2023-06-10T10:15:11;96873.66;;;24.59;85.24
19596;BME280;9945;46.010;8.946;2023-06-10T10:17:41;96878.88;;;24.49;85.50
19596;BME280;9945;46.010;8.946;2023-06-10T10:20:12;96875.88;;;24.84;82.75
19596;BME280;9945;46.010;8.946;2023-06-10T10:22:43;96878.06;;;25.04;80.93
19596;BME280;9945;46.010;8.946;2023-06-10T10:25:12;96862.91;;;24.76;83.68
19596;BME280;9945;46.010;8.946;2023-06-10T10:27:44;96873.53;;;25.04;82.17
19596;BME280;9945;46.010;8.946;2023-06-10T10:30:14;96872.09;;;25.18;80.64
19596;BME280;9945;46.010;8.946;2023-06-10T10:32:55;96865.00;;;25.29;77.99
19596;BME280;9945;46.010;8.946;2023-06-10T10:35:24;96864.94;;;25.46;76.64
19596;BME280;9945;46.010;8.946;2023-06-10T10:37:53;96858.00;;;25.72;75.09
19596;BME280;9945;46.010;8.946;2023-06-10T10:40:21;96875.94;;;25.93;73.67
19596;BME280;9945;46.010;8.946;2023-06-10T10:42:50;96859.75;;;26.15;76.38
19596;BME280;9945;46.010;8.946;2023-06-10T10:45:18;96852.25;;;26.49;73.20
19596;BME280;9945;46.010;8.946;2023-06-10T10:47:45;96854.03;;;26.75;69.15
19596;BME280;9945;46.010;8.946;2023-06-10T10:50:14;96853.47;;;26.68;70.04
19596;BME280;9945;46.010;8.946;2023-06-10T10:53:00;96857.19;;;26.62;67.21
19596;BME280;9945;46.010;8.946;2023-06-10T10:55:28;96858.19;;;26.51;66.53
19596;BME280;9945;46.010;8.946;2023-06-10T10:57:58;96848.94;;;26.73;66.73
19596;BME280;9945;46.010;8.946;2023-06-10T11:00:29;96847.06;;;26.74;66.21
19596;BME280;9945;46.010;8.946;2023-06-10T11:03:04;96844.13;;;26.81;64.34
19596;BME280;9945;46.010;8.946;2023-06-10T11:05:36;96843.63;;;26.89;65.25
19596;BME280;9945;46.010;8.946;2023-06-10T11:08:04;96837.38;;;26.73;64.74
19596;BME280;9945;46.010;8.946;2023-06-10T11:10:32;96835.56;;;26.84;65.63
19596;BME280;9945;46.010;8.946;2023-06-10T11:13:05;96847.78;;;27.06;65.73
19596;BME280;9945;46.010;8.946;2023-06-10T11:15:38;96839.19;;;27.04;64.29
19596;BME280;9945;46.010;8.946;2023-06-10T11:18:19;96837.03;;;27.06;64.05
19596;BME280;9945;46.010;8.946;2023-06-10T11:20:54;96834.69;;;26.73;64.85
19596;BME280;9945;46.010;8.946;2023-06-10T11:23:26;96828.41;;;26.99;63.96
19596;BME280;9945;46.010;8.946;2023-06-10T11:29:09;96824.56;;;26.90;64.05
19596;BME280;9945;46.010;8.946;2023-06-10T11:31:48;96826.38;;;26.80;65.09
19596;BME280;9945;46.010;8.946;2023-06-10T11:34:21;96830.97;;;26.79;64.13
19596;BME280;9945;46.010;8.946;2023-06-10T11:36:51;96824.78;;;26.79;64.69
19596;BME280;9945;46.010;8.946;2023-06-10T11:39:20;96825.88;;;26.83;63.34
19596;BME280;9945;46.010;8.946;2023-06-10T11:41:50;96820.41;;;26.67;63.42
19596;BME280;9945;46.010;8.946;2023-06-10T11:44:18;96824.56;;;26.90;63.27
19596;BME280;9945;46.010;8.946;2023-06-10T11:46:47;96820.25;;;26.89;63.33
19596;BME280;9945;46.010;8.946;2023-06-10T11:49:15;96815.56;;;26.64;63.30
19596;BME280;9945;46.010;8.946;2023-06-10T11:51:41;96814.25;;;26.72;62.63
19596;BME280;9945;46.010;8.946;2023-06-10T11:54:14;96816.91;;;26.62;63.60
19596;BME280;9945;46.010;8.946;2023-06-10T11:56:42;96805.44;;;26.77;63.47
19596;BME280;9945;46.010;8.946;2023-06-10T11:59:09;96814.41;;;26.92;62.53
19596;BME280;9945;46.010;8.946;2023-06-10T12:01:41;96801.38;;;26.74;65.29
19596;BME280;9945;46.010;8.946;2023-06-10T12:04:09;96801.72;;;26.88;63.55
19596;BME280;9945;46.010;8.946;2023-06-10T12:06:41;96795.59;;;26.97;62.02
19596;BME280;9945;46.010;8.946;2023-06-10T12:09:17;96800.50;;;27.10;60.40
19596;BME280;9945;46.010;8.946;2023-06-10T12:11:44;96796.44;;;27.08;60.74
19596;BME280;9945;46.010;8.946;2023-06-10T12:14:12;96786.50;;;27.08;61.25
19596;BME280;9945;46.010;8.946;2023-06-10T12:16:40;96782.13;;;26.92;61.29
19596;BME280;9945;46.010;8.946;2023-06-10T12:19:07;96797.38;;;26.77;62.21
19596;BME280;9945;46.010;8.946;2023-06-10T12:21:36;96788.91;;;26.53;63.35
19596;BME280;9945;46.010;8.946;2023-06-10T12:24:06;96783.31;;;26.64;64.91
19596;BME280;9945;46.010;8.946;2023-06-10T12:26:38;96784.19;;;26.80;63.03
19596;BME280;9945;46.010;8.946;2023-06-10T12:29:22;96777.31;;;26.99;63.05
19596;BME280;9945;46.010;8.946;2023-06-10T12:31:58;96777.75;;;26.81;63.23
19596;BME280;9945;46.010;8.946;2023-06-10T12:34:35;96781.75;;;26.68;63.79
19596;BME280;9945;46.010;8.946;2023-06-10T12:37:05;96771.22;;;26.62;65.72
19596;BME280;9945;46.010;8.946;2023-06-10T12:39:32;96771.88;;;26.84;65.63
19596;BME280;9945;46.010;8.946;2023-06-10T12:42:00;96770.94;;;26.58;65.85
19596;BME280;9945;46.010;8.946;2023-06-10T12:44:34;96769.44;;;26.83;65.59
19596;BME280;9945;46.010;8.946;2023-06-10T12:47:09;96767.81;;;26.82;64.30
19596;BME280;9945;46.010;8.946;2023-06-10T12:49:38;96769.84;;;27.11;63.00
19596;BME280;9945;46.010;8.946;2023-06-10T12:52:05;96769.00;;;27.06;63.10
19596;BME280;9945;46.010;8.946;2023-06-10T12:54:34;96767.13;;;26.96;63.18
19596;BME280;9945;46.010;8.946;2023-06-10T12:57:01;96763.34;;;26.92;64.42
19596;BME280;9945;46.010;8.946;2023-06-10T12:59:28;96765.94;;;26.77;62.62
19596;BME280;9945;46.010;8.946;2023-06-10T13:01:55;96759.06;;;26.96;62.05
19596;BME280;9945;46.010;8.946;2023-06-10T13:04:23;96759.38;;;27.15;62.47
19596;BME280;9945;46.010;8.946;2023-06-10T13:06:50;96756.75;;;27.30;63.48
19596;BME280;9945;46.010;8.946;2023-06-10T13:09:17;96758.06;;;27.28;61.30
19596;BME280;9945;46.010;8.946;2023-06-10T13:11:45;96758.84;;;27.13;63.22
19596;BME280;9945;46.010;8.946;2023-06-10T13:14:11;96764.53;;;27.27;61.95
19596;BME280;9945;46.010;8.946;2023-06-10T13:16:38;96761.84;;;27.27;62.45
19596;BME280;9945;46.010;8.946;2023-06-10T13:19:05;96747.94;;;26.83;62.92